Pembroke, United Kingdom
Current Conditions -  °F | °C
As of 11:50 PM on Monday 20 Oct 2014 (Local Time) from EGOP Reporting Station
Scattered Clouds Scattered Clouds  
Wind Chill: 57°   Ceiling: Unl
Heat Index: 57°   Visibility: 6mi
Dew Point: 54°   Wind: 41mph
Humidity: 88%   Direction: 220°SW
Pressure: 29.77"   Gusts: NA
Location:  51.67°N, 4.91°W
Report Text: EGOP 202250Z AUTO 22036KT 9999 // FEW017/// SCT020/// 14/12 Q1008
Loading
Personal Weather Stations






























Interactive Weather Map
Tropical Storm Tracking
New forecast layout! Learn more

10-Day Weather Forecast

Advertisements
Track Severe Weather on mobile